Time;durP1;ratioP1;P1;durP2;ratioP2;P2;SDS_P1;SDS_P2;PMS_P1;PMS_P2;Temp;Humidity;BMP_temperature;BMP_pressure;BME280_temperature;BME280_humidity;BME280_pressure;Samples;Min_cycle;Max_cycle;Signal;HPM_P1;HPM_P2
2024/03/30 00:00:53;;;;;;;0.30;0.30;;;3.80;99.90;;;;;;6275911;22;20249;-72
2024/03/30 00:03:20;;;;;;;0.30;0.30;;;3.90;99.90;;;;;;6275461;22;20164;-74
2024/03/30 00:05:46;;;;;;;0.30;0.30;;;4.00;99.90;;;;;;6275771;22;20172;-73
2024/03/30 00:08:13;;;;;;;0.20;0.20;;;4.00;99.90;;;;;;6275701;22;20247;-74
2024/03/30 00:10:40;;;;;;;0.30;0.30;;;4.10;99.90;;;;;;6275401;22;20691;-73
2024/03/30 00:13:11;;;;;;;0.30;0.30;;;4.20;99.90;;;;;;6275750;22;20223;-74
2024/03/30 00:15:37;;;;;;;0.40;0.40;;;4.20;99.90;;;;;;6275229;22;20633;-73
2024/03/30 00:18:03;;;;;;;0.30;0.30;;;4.30;99.90;;;;;;6275668;22;20165;-73
2024/03/30 00:20:29;;;;;;;0.30;0.30;;;4.30;99.90;;;;;;6275469;22;20180;-73
2024/03/30 00:22:55;;;;;;;0.22;0.22;;;4.30;99.90;;;;;;6275419;22;20168;-73
2024/03/30 00:25:23;;;;;;;0.25;0.25;;;4.20;99.90;;;;;;6274125;22;20176;-74
2024/03/30 00:27:49;;;;;;;0.30;0.30;;;4.20;99.90;;;;;;6275573;22;20204;-73
2024/03/30 00:30:16;;;;;;;0.32;0.32;;;4.10;99.90;;;;;;6275504;22;20172;-72
2024/03/30 00:32:41;;;;;;;0.47;0.47;;;4.00;99.90;;;;;;6273773;22;20267;-73
2024/03/30 00:35:07;;;;;;;0.30;0.30;;;3.90;99.90;;;;;;6275605;22;20188;-73
2024/03/30 00:37:33;;;;;;;0.30;0.30;;;3.80;99.90;;;;;;6275348;22;20168;-73
2024/03/30 00:39:59;;;;;;;0.30;0.30;;;3.70;99.90;;;;;;6275505;22;20271;-73
2024/03/30 00:42:26;;;;;;;0.55;0.55;;;3.60;99.90;;;;;;6275357;22;20191;-73
2024/03/30 00:44:52;;;;;;;0.30;0.30;;;3.60;99.90;;;;;;6275513;22;20168;-73
2024/03/30 00:47:18;;;;;;;1.27;1.17;;;3.60;99.90;;;;;;6275572;22;20168;-73
2024/03/30 00:49:44;;;;;;;0.30;0.30;;;3.50;99.90;;;;;;6275908;22;20516;-73
2024/03/30 00:52:10;;;;;;;0.22;0.22;;;3.40;99.90;;;;;;6275324;22;20243;-73
2024/03/30 00:54:36;;;;;;;0.30;0.30;;;3.30;99.90;;;;;;6275131;22;20629;-72
2024/03/30 00:57:02;;;;;;;0.40;0.40;;;3.30;99.90;;;;;;6276195;22;20173;-73
2024/03/30 00:59:27;;;;;;;0.40;0.40;;;3.20;99.90;;;;;;6277126;22;20246;-72
2024/03/30 01:01:53;;;;;;;0.20;0.20;;;3.30;99.90;;;;;;6277222;22;20168;-72
2024/03/30 01:04:19;;;;;;;0.30;0.30;;;3.40;99.90;;;;;;6277348;22;20194;-76
2024/03/30 01:06:44;;;;;;;0.20;0.20;;;3.40;99.90;;;;;;6277217;22;20227;-75
2024/03/30 01:09:10;;;;;;;0.30;0.30;;;3.50;99.90;;;;;;6277523;22;20164;-75
2024/03/30 01:11:36;;;;;;;0.30;0.30;;;3.50;99.90;;;;;;6276970;22;20219;-76
2024/03/30 01:14:05;;;;;;;0.20;0.20;;;3.60;99.90;;;;;;6277280;22;20168;-75
2024/03/30 01:16:32;;;;;;;0.20;0.20;;;3.60;99.90;;;;;;6275233;22;20232;-76
2024/03/30 01:18:58;;;;;;;0.30;0.30;;;3.80;99.90;;;;;;6277197;22;20171;-75
2024/03/30 01:21:25;;;;;;;0.30;0.30;;;3.90;99.90;;;;;;6277243;22;20290;-76
2024/03/30 01:23:51;;;;;;;0.28;0.28;;;4.10;99.90;;;;;;6275466;22;20184;-76
2024/03/30 01:26:19;;;;;;;0.20;0.20;;;4.30;99.90;;;;;;6277241;22;20247;-76
2024/03/30 01:28:46;;;;;;;0.30;0.30;;;4.40;99.90;;;;;;6276990;22;20230;-76
2024/03/30 01:31:12;;;;;;;0.40;0.40;;;4.40;99.90;;;;;;6276912;22;20200;-76
2024/03/30 01:33:39;;;;;;;0.20;0.20;;;4.40;99.90;;;;;;6276822;22;20203;-76
2024/03/30 01:36:06;;;;;;;0.30;0.30;;;4.30;99.90;;;;;;6277019;22;20187;-76
2024/03/30 01:38:32;;;;;;;0.20;0.20;;;4.30;99.90;;;;;;6276784;22;20172;-76
2024/03/30 01:41:00;;;;;;;0.17;0.17;;;4.20;99.90;;;;;;6276970;22;20499;-75
2024/03/30 01:43:26;;;;;;;0.30;0.30;;;4.10;99.90;;;;;;6276704;22;20165;-75
2024/03/30 01:45:54;;;;;;;0.20;0.20;;;4.10;99.90;;;;;;6276963;22;20640;-74
2024/03/30 01:48:21;;;;;;;0.20;0.20;;;4.00;99.90;;;;;;6276525;22;20168;-74
2024/03/30 01:50:48;;;;;;;0.30;0.30;;;3.90;99.90;;;;;;6276909;22;20175;-75
2024/03/30 01:53:22;;;;;;;0.20;0.20;;;3.80;99.90;;;;;;6276861;22;20233;-74
2024/03/30 01:55:51;;;;;;;0.20;0.20;;;3.70;99.90;;;;;;6277242;22;20618;-74
2024/03/30 01:58:24;;;;;;;0.30;0.30;;;3.60;99.90;;;;;;6276867;22;20175;-74
2024/03/30 02:00:54;;;;;;;0.30;0.30;;;3.50;99.90;;;;;;6276808;22;20330;-74
2024/03/30 02:03:23;;;;;;;0.30;0.30;;;3.40;99.90;;;;;;6275959;22;20176;-75
2024/03/30 02:05:49;;;;;;;0.30;0.30;;;3.30;99.90;;;;;;6276547;22;20199;-76
2024/03/30 02:08:16;;;;;;;0.30;0.30;;;3.30;99.90;;;;;;6276380;22;20218;-75
2024/03/30 02:10:43;;;;;;;0.30;0.30;;;3.30;99.90;;;;;;6276026;22;20172;-75
2024/03/30 02:13:08;;;;;;;0.30;0.30;;;3.30;99.90;;;;;;6276662;22;20242;-76
2024/03/30 02:15:34;;;;;;;0.30;0.30;;;3.20;99.90;;;;;;6276346;22;20184;-76
2024/03/30 02:18:00;;;;;;;0.30;0.30;;;3.10;99.90;;;;;;6276708;22;20168;-76
2024/03/30 02:20:25;;;;;;;0.30;0.30;;;3.10;99.90;;;;;;6274588;22;20182;-76
2024/03/30 02:22:52;;;;;;;0.47;0.47;;;3.20;99.90;;;;;;6276110;22;20175;-75
2024/03/30 02:25:22;;;;;;;0.20;0.20;;;3.20;99.90;;;;;;6276234;22;20180;-76
2024/03/30 02:27:49;;;;;;;0.30;0.30;;;3.20;99.90;;;;;;6276262;22;20563;-76
2024/03/30 02:30:29;;;;;;;0.20;0.20;;;3.20;99.90;;;;;;6276335;22;20641;-76
2024/03/30 02:32:56;;;;;;;0.30;0.30;;;3.20;99.90;;;;;;6276543;22;20172;-76
2024/03/30 02:35:22;;;;;;;0.20;0.20;;;3.40;99.90;;;;;;6276130;22;20233;-76
2024/03/30 02:37:48;;;;;;;0.30;0.30;;;3.50;99.90;;;;;;6276547;22;20160;-76
2024/03/30 02:40:14;;;;;;;0.30;0.30;;;3.80;99.90;;;;;;6276526;22;20237;-76
2024/03/30 02:42:41;;;;;;;0.30;0.30;;;3.90;99.90;;;;;;6276186;22;20614;-76
2024/03/30 02:45:12;;;;;;;0.30;0.30;;;3.90;99.90;;;;;;6276158;22;20515;-76
2024/03/30 02:47:38;;;;;;;0.40;0.40;;;3.80;99.90;;;;;;6276214;22;20237;-76
2024/03/30 02:50:04;;;;;;;0.22;0.22;;;3.60;99.90;;;;;;6276331;22;20221;-76
2024/03/30 02:52:30;;;;;;;0.38;0.38;;;3.50;99.90;;;;;;6276156;22;20164;-77
2024/03/30 02:54:56;;;;;;;7.03;2.15;;;3.50;99.90;;;;;;6274643;22;20211;-75
2024/03/30 02:57:22;;;;;;;0.30;0.30;;;3.50;99.90;;;;;;6274452;22;20176;-75
2024/03/30 02:59:47;;;;;;;0.30;0.30;;;3.50;99.90;;;;;;6276272;22;20168;-76
2024/03/30 03:02:13;;;;;;;0.35;0.35;;;3.50;99.90;;;;;;6276507;22;20164;-76
2024/03/30 03:04:39;;;;;;;0.30;0.30;;;3.50;99.90;;;;;;6276053;22;20171;-76
2024/03/30 03:07:06;;;;;;;0.30;0.30;;;3.60;99.90;;;;;;6276224;22;20168;-76
2024/03/30 03:09:32;;;;;;;0.55;0.55;;;3.60;99.90;;;;;;6275992;22;20175;-76
2024/03/30 03:11:57;;;;;;;0.30;0.30;;;3.70;99.90;;;;;;6274509;22;20172;-76
2024/03/30 03:14:23;;;;;;;0.30;0.30;;;3.80;99.90;;;;;;6275740;22;20171;-76
2024/03/30 03:16:49;;;;;;;0.30;0.30;;;3.80;99.90;;;;;;6275987;22;20517;-76
2024/03/30 03:19:18;;;;;;;0.30;0.30;;;4.00;99.90;;;;;;6276077;22;20174;-75
2024/03/30 03:21:44;;;;;;;0.30;0.30;;;4.00;99.90;;;;;;6276301;22;20172;-75
2024/03/30 03:24:09;;;;;;;0.20;0.20;;;3.90;99.90;;;;;;6274504;22;20180;-72
2024/03/30 03:26:37;;;;;;;0.35;0.35;;;3.90;99.90;;;;;;6275822;22;20265;-72
2024/03/30 03:29:03;;;;;;;0.30;0.30;;;3.90;99.90;;;;;;6275968;22;20608;-72
2024/03/30 03:31:29;;;;;;;0.80;0.68;;;3.90;99.90;;;;;;6275507;22;20200;-72
2024/03/30 03:33:57;;;;;;;0.30;0.30;;;3.90;99.90;;;;;;6275846;22;20179;-72
2024/03/30 03:36:23;;;;;;;0.20;0.20;;;4.00;99.90;;;;;;6275602;22;20207;-72
2024/03/30 03:38:49;;;;;;;0.32;0.32;;;4.10;99.90;;;;;;6275915;22;20171;-72
2024/03/30 03:41:17;;;;;;;0.20;0.20;;;4.10;99.90;;;;;;6275729;22;20554;-72
2024/03/30 03:43:43;;;;;;;0.30;0.30;;;4.20;99.90;;;;;;6275700;22;20192;-73
2024/03/30 03:46:30;;;;;;;0.30;0.30;;;4.20;99.90;;;;;;6275834;22;20617;-72
2024/03/30 03:48:56;;;;;;;0.40;0.40;;;4.30;99.90;;;;;;6275865;22;20172;-72
2024/03/30 03:51:22;;;;;;;0.30;0.30;;;4.30;99.90;;;;;;6275647;22;20167;-72
2024/03/30 03:53:47;;;;;;;0.30;0.30;;;4.30;99.90;;;;;;6274177;22;20191;-72
2024/03/30 03:56:13;;;;;;;0.30;0.30;;;4.30;99.90;;;;;;6275697;22;20245;-72
2024/03/30 03:58:39;;;;;;;0.30;0.30;;;4.40;99.90;;;;;;6275551;22;20203;-73
2024/03/30 04:01:05;;;;;;;5.82;2.25;;;4.40;99.90;;;;;;6275559;22;20174;-74
2024/03/30 04:03:32;;;;;;;0.20;0.20;;;4.40;99.90;;;;;;6275293;22;20290;-74
2024/03/30 04:06:10;;;;;;;0.30;0.30;;;4.40;99.90;;;;;;6274131;22;20251;-73
2024/03/30 04:08:36;;;;;;;0.32;0.32;;;4.40;99.90;;;;;;6275559;22;20298;-72
2024/03/30 04:11:03;;;;;;;0.50;0.50;;;4.50;99.90;;;;;;6275707;22;20200;-73
2024/03/30 04:13:29;;;;;;;0.30;0.30;;;4.50;99.90;;;;;;6275491;22;20178;-72
2024/03/30 04:15:55;;;;;;;0.30;0.30;;;4.50;99.90;;;;;;6275443;22;20185;-73
2024/03/30 04:18:20;;;;;;;0.30;0.30;;;4.60;99.90;;;;;;6275347;22;20221;-74
2024/03/30 04:20:56;;;;;;;0.30;0.30;;;4.60;99.90;;;;;;6275765;22;20172;-73
2024/03/30 04:23:22;;;;;;;0.40;0.40;;;4.60;99.90;;;;;;6275388;22;20621;-74
2024/03/30 04:25:58;;;;;;;0.30;0.30;;;4.60;99.90;;;;;;6274147;22;20238;-73
2024/03/30 04:28:24;;;;;;;0.20;0.20;;;4.60;99.90;;;;;;6275491;22;20175;-73
2024/03/30 04:31:00;;;;;;;0.20;0.20;;;4.70;99.90;;;;;;6275529;22;20192;-73
2024/03/30 04:33:26;;;;;;;0.20;0.20;;;4.70;99.90;;;;;;6277497;22;20221;-72
2024/03/30 04:35:57;;;;;;;0.70;0.70;;;4.70;99.90;;;;;;6275726;22;20575;-73
2024/03/30 04:38:23;;;;;;;0.30;0.30;;;4.70;99.90;;;;;;6275772;22;20252;-73
2024/03/30 04:41:05;;;;;;;0.30;0.30;;;4.70;99.90;;;;;;6277641;22;20571;-74
2024/03/30 04:43:32;;;;;;;0.50;0.50;;;4.70;99.90;;;;;;6277348;22;20172;-73
2024/03/30 04:45:59;;;;;;;0.45;0.45;;;4.80;99.90;;;;;;6277609;22;20660;-74
2024/03/30 04:48:27;;;;;;;0.30;0.30;;;4.80;99.90;;;;;;6277328;22;20234;-74
2024/03/30 04:50:54;;;;;;;0.38;0.38;;;4.90;99.90;;;;;;6277365;22;20175;-73
2024/03/30 04:53:22;;;;;;;0.40;0.40;;;4.80;99.90;;;;;;6277332;22;20168;-75
2024/03/30 04:56:04;;;;;;;0.30;0.30;;;4.90;99.90;;;;;;6277439;22;20187;-73
2024/03/30 04:58:32;;;;;;;0.40;0.40;;;4.90;99.90;;;;;;6277181;22;20294;-73
2024/03/30 05:01:08;;;;;;;0.20;0.20;;;4.90;99.90;;;;;;6277343;22;20182;-73
2024/03/30 05:03:34;;;;;;;0.20;0.20;;;4.90;99.90;;;;;;6277020;22;20636;-73
2024/03/30 05:06:02;;;;;;;0.20;0.20;;;4.90;99.90;;;;;;6277424;22;20251;-73
2024/03/30 05:08:28;;;;;;;0.30;0.30;;;5.00;99.90;;;;;;6277184;22;20638;-73
2024/03/30 05:10:53;;;;;;;0.40;0.40;;;5.00;99.90;;;;;;6275750;22;20183;-73
2024/03/30 05:13:20;;;;;;;0.28;0.28;;;5.00;99.90;;;;;;6277262;22;20168;-73
2024/03/30 05:15:46;;;;;;;0.20;0.20;;;5.20;99.90;;;;;;6277258;22;20184;-74
2024/03/30 05:18:12;;;;;;;0.65;0.63;;;5.20;99.90;;;;;;6277246;22;20610;-72
2024/03/30 05:20:59;;;;;;;0.25;0.25;;;5.30;99.90;;;;;;6277055;22;20172;-73
2024/03/30 05:23:29;;;;;;;0.60;0.60;;;5.30;99.90;;;;;;6276808;22;20675;-74
2024/03/30 05:25:57;;;;;;;0.40;0.40;;;5.40;99.90;;;;;;6277218;22;20484;-73
2024/03/30 05:28:27;;;;;;;0.40;0.40;;;5.50;99.90;;;;;;6277027;22;20608;-74
2024/03/30 05:30:54;;;;;;;0.30;0.30;;;5.60;99.90;;;;;;6276946;22;20227;-74
2024/03/30 05:33:22;;;;;;;0.43;0.43;;;5.60;99.90;;;;;;6276686;22;20211;-74
2024/03/30 05:35:49;;;;;;;0.30;0.30;;;5.60;99.90;;;;;;6276803;22;20249;-74
2024/03/30 05:38:15;;;;;;;0.30;0.30;;;5.60;99.90;;;;;;6277135;22;20164;-74
2024/03/30 05:40:42;;;;;;;0.25;0.25;;;5.60;99.90;;;;;;6276804;22;20617;-73
2024/03/30 05:43:08;;;;;;;2.38;0.70;;;5.60;99.90;;;;;;6276936;22;20598;-76
2024/03/30 05:45:36;;;;;;;0.40;0.40;;;5.60;99.90;;;;;;6276890;22;20202;-76
2024/03/30 05:48:02;;;;;;;0.30;0.30;;;5.70;99.90;;;;;;6276939;22;20512;-76
2024/03/30 05:50:29;;;;;;;0.30;0.30;;;5.70;99.90;;;;;;6275094;22;20179;-76
2024/03/30 05:52:55;;;;;;;0.22;0.22;;;5.80;99.90;;;;;;6276939;22;20229;-75
2024/03/30 05:55:21;;;;;;;0.47;0.47;;;5.80;99.90;;;;;;6276600;22;20173;-76
2024/03/30 05:57:47;;;;;;;0.40;0.40;;;5.80;99.90;;;;;;6276815;22;20175;-76
2024/03/30 06:00:14;;;;;;;0.25;0.25;;;5.80;99.90;;;;;;6276945;22;20610;-76
2024/03/30 06:02:44;;;;;;;0.98;0.98;;;5.90;99.90;;;;;;6276514;22;20245;-75
2024/03/30 06:05:11;;;;;;;0.85;0.85;;;6.00;99.90;;;;;;6276702;22;20176;-75
2024/03/30 06:07:37;;;;;;;0.30;0.30;;;6.10;99.90;;;;;;6276525;22;20602;-76
2024/03/30 06:10:03;;;;;;;0.40;0.40;;;6.20;99.90;;;;;;6276801;22;20177;-75
2024/03/30 06:12:30;;;;;;;0.30;0.30;;;6.20;99.90;;;;;;6276526;22;20172;-76
2024/03/30 06:14:55;;;;;;;0.40;0.40;;;6.30;99.90;;;;;;6276916;22;20176;-75
2024/03/30 06:17:21;;;;;;;0.50;0.50;;;6.40;99.90;;;;;;6276482;22;20164;-76
2024/03/30 06:19:50;;;;;;;0.40;0.40;;;6.50;99.90;;;;;;6275067;22;20561;-76
2024/03/30 06:22:15;;;;;;;0.20;0.20;;;6.60;99.90;;;;;;6277004;22;20638;-76
2024/03/30 06:24:41;;;;;;;0.30;0.30;;;6.60;99.90;;;;;;6276347;22;20200;-76
2024/03/30 06:27:07;;;;;;;0.38;0.38;;;6.60;99.90;;;;;;6276536;22;20175;-75
2024/03/30 06:29:38;;;;;;;0.30;0.30;;;6.60;99.90;;;;;;6276054;22;20168;-76
2024/03/30 06:32:04;;;;;;;0.20;0.20;;;6.60;99.90;;;;;;6274760;22;20207;-75
2024/03/30 06:34:31;;;;;;;0.22;0.22;;;6.60;99.90;;;;;;6276141;22;20171;-75
2024/03/30 06:36:57;;;;;;;0.80;0.80;;;6.60;99.90;;;;;;6276382;22;20172;-76
2024/03/30 06:39:22;;;;;;;0.40;0.40;;;6.60;99.90;;;;;;6276155;22;20172;-75
2024/03/30 06:44:32;;;;;;;0.30;0.30;;;6.80;99.90;;;;;;6276034;22;20207;-75
2024/03/30 06:46:58;;;;;;;0.20;0.20;;;6.80;99.90;;;;;;6276382;22;20164;-76
2024/03/30 06:49:24;;;;;;;0.20;0.20;;;6.80;99.90;;;;;;6274482;22;20254;-76
2024/03/30 06:51:50;;;;;;;0.30;0.30;;;6.80;99.90;;;;;;6276254;22;20172;-75
2024/03/30 06:54:16;;;;;;;1.55;0.85;;;6.80;99.90;;;;;;6276387;22;20180;-76
2024/03/30 06:56:42;;;;;;;0.52;0.52;;;6.90;99.90;;;;;;6276026;22;20192;-76
2024/03/30 06:59:08;;;;;;;2.10;0.93;;;6.90;99.90;;;;;;6276375;22;20168;-76
2024/03/30 07:01:34;;;;;;;0.30;0.30;;;7.00;99.90;;;;;;6276108;22;20169;-76
2024/03/30 07:04:01;;;;;;;0.30;0.30;;;7.00;99.90;;;;;;6276309;22;20222;-76
2024/03/30 07:06:27;;;;;;;0.20;0.20;;;7.10;99.90;;;;;;6276158;22;20506;-76
2024/03/30 07:08:59;;;;;;;0.20;0.20;;;7.20;99.90;;;;;;6276326;22;20172;-76
2024/03/30 07:11:25;;;;;;;0.30;0.30;;;7.20;99.90;;;;;;6276228;22;20225;-76
2024/03/30 07:13:51;;;;;;;0.40;0.40;;;7.30;99.90;;;;;;6276272;22;20603;-77
2024/03/30 07:16:20;;;;;;;0.20;0.20;;;7.20;99.90;;;;;;6276330;22;20184;-76
2024/03/30 07:18:45;;;;;;;0.40;0.40;;;7.20;99.90;;;;;;6276354;22;20660;-76
2024/03/30 07:21:12;;;;;;;0.30;0.30;;;7.30;99.90;;;;;;6276521;22;20172;-76
2024/03/30 07:23:38;;;;;;;0.20;0.20;;;7.40;99.90;;;;;;6274378;22;20183;-76
2024/03/30 07:26:06;;;;;;;0.30;0.30;;;7.50;99.90;;;;;;6275925;22;20724;-76
2024/03/30 07:28:32;;;;;;;0.20;0.20;;;7.50;99.90;;;;;;6274458;22;20230;-76
2024/03/30 07:31:05;;;;;;;0.28;0.28;;;7.60;99.90;;;;;;6276130;22;20561;-76
2024/03/30 07:33:31;;;;;;;0.30;0.30;;;7.70;99.90;;;;;;6276161;22;20560;-76
2024/03/30 07:35:57;;;;;;;0.50;0.50;;;7.80;99.90;;;;;;6276174;22;20655;-77
2024/03/30 07:38:32;;;;;;;0.28;0.28;;;7.80;99.90;;;;;;6275920;22;20168;-77
2024/03/30 07:40:59;;;;;;;0.55;0.55;;;7.90;99.90;;;;;;6276240;22;20179;-77
2024/03/30 07:43:25;;;;;;;0.30;0.30;;;8.00;99.90;;;;;;6275822;22;20252;-77
2024/03/30 07:45:51;;;;;;;0.30;0.30;;;8.20;99.90;;;;;;6276269;22;20196;-77
2024/03/30 07:48:17;;;;;;;1.00;1.00;;;8.40;99.90;;;;;;6276142;22;20241;-77
2024/03/30 07:50:43;;;;;;;0.30;0.30;;;8.50;99.90;;;;;;6275824;22;20594;-77
2024/03/30 07:53:08;;;;;;;0.20;0.20;;;8.70;99.90;;;;;;6276028;22;20254;-77
2024/03/30 07:55:34;;;;;;;0.30;0.30;;;8.70;99.90;;;;;;6275741;22;20203;-77
2024/03/30 07:58:00;;;;;;;0.25;0.25;;;8.80;99.90;;;;;;6276013;22;20171;-77
2024/03/30 08:00:26;;;;;;;0.28;0.28;;;8.70;99.90;;;;;;6275942;22;20172;-76
2024/03/30 08:02:59;;;;;;;0.30;0.30;;;8.80;99.90;;;;;;6275944;22;20164;-76
2024/03/30 08:05:25;;;;;;;0.20;0.20;;;8.90;99.90;;;;;;6275630;22;20172;-76
2024/03/30 08:07:51;;;;;;;0.40;0.40;;;9.20;99.90;;;;;;6275758;22;20179;-76
2024/03/30 08:10:17;;;;;;;0.30;0.30;;;9.10;99.90;;;;;;6278011;22;20522;-76
2024/03/30 08:12:43;;;;;;;0.30;0.30;;;9.20;99.90;;;;;;6277798;22;20164;-76
2024/03/30 08:15:08;;;;;;;0.20;0.20;;;9.10;99.90;;;;;;6277774;22;20554;-76
2024/03/30 08:17:34;;;;;;;0.30;0.30;;;9.20;99.90;;;;;;6277723;22;20168;-76
2024/03/30 08:20:00;;;;;;;0.30;0.30;;;9.50;99.90;;;;;;6276293;22;20226;-76
2024/03/30 08:22:25;;;;;;;0.25;0.25;;;9.60;99.90;;;;;;6277963;22;20226;-76
2024/03/30 08:24:51;;;;;;;0.20;0.20;;;9.50;99.90;;;;;;6277932;22;20172;-76
2024/03/30 08:27:17;;;;;;;0.30;0.30;;;9.60;99.90;;;;;;6277888;22;20176;-76
2024/03/30 08:29:43;;;;;;;0.73;0.73;;;9.70;99.90;;;;;;6277637;22;20172;-76
2024/03/30 08:32:09;;;;;;;3.03;1.30;;;9.70;99.90;;;;;;6277796;22;20196;-76
2024/03/30 08:34:34;;;;;;;0.20;0.20;;;9.50;99.90;;;;;;6277568;22;20169;-76
2024/03/30 08:37:00;;;;;;;0.50;0.50;;;9.20;99.90;;;;;;6277712;22;20175;-76
2024/03/30 08:39:26;;;;;;;0.20;0.20;;;9.40;99.90;;;;;;6277561;22;20190;-76
2024/03/30 08:41:51;;;;;;;0.20;0.20;;;9.80;99.90;;;;;;6277718;22;20171;-76
2024/03/30 08:44:17;;;;;;;0.40;0.40;;;10.20;99.90;;;;;;6277850;22;20255;-76
2024/03/30 08:46:42;;;;;;;0.77;0.77;;;10.40;99.90;;;;;;6277762;22;20199;-77
2024/03/30 08:49:09;;;;;;;0.20;0.20;;;10.50;99.90;;;;;;6277556;22;20177;-76
2024/03/30 08:51:35;;;;;;;0.20;0.20;;;10.50;99.90;;;;;;6277590;22;20552;-76
2024/03/30 08:54:07;;;;;;;0.47;0.47;;;10.60;99.90;;;;;;6277590;22;20168;-76
2024/03/30 08:56:33;;;;;;;0.30;0.30;;;10.60;99.90;;;;;;6277256;22;20184;-76
2024/03/30 08:58:59;;;;;;;0.55;0.32;;;10.50;99.90;;;;;;6277506;22;20164;-76
2024/03/30 09:01:25;;;;;;;0.25;0.25;;;10.00;99.90;;;;;;6275622;22;20485;-76
2024/03/30 09:03:51;;;;;;;0.30;0.30;;;10.10;99.90;;;;;;6277338;22;20486;-77
2024/03/30 09:06:17;;;;;;;0.22;0.22;;;10.00;99.90;;;;;;6277572;22;20172;-77
2024/03/30 09:08:44;;;;;;;0.40;0.40;;;9.80;99.90;;;;;;6277378;22;20172;-77
2024/03/30 09:11:10;;;;;;;0.20;0.20;;;9.70;99.90;;;;;;6277582;22;20633;-76
2024/03/30 09:13:37;;;;;;;0.30;0.30;;;9.50;99.90;;;;;;6277231;22;20175;-74
2024/03/30 09:16:04;;;;;;;0.20;0.20;;;9.40;99.90;;;;;;6275644;22;20188;-74
2024/03/30 09:18:30;;;;;;;0.20;0.20;;;9.80;99.90;;;;;;6276538;22;20171;-74
2024/03/30 09:20:58;;;;;;;0.30;0.30;;;9.90;99.90;;;;;;6277391;22;20172;-74
2024/03/30 09:23:27;;;;;;;0.30;0.30;;;10.10;99.90;;;;;;6276851;22;20179;-73
2024/03/30 09:25:53;;;;;;;29.48;0.95;;;10.40;99.90;;;;;;6277202;22;20183;-74
2024/03/30 09:28:18;;;;;;;0.20;0.20;;;10.70;99.90;;;;;;6277110;22;20508;-75
2024/03/30 09:30:44;;;;;;;0.20;0.20;;;10.90;99.90;;;;;;6277031;22;20218;-74
2024/03/30 09:33:09;;;;;;;0.30;0.30;;;10.80;99.90;;;;;;6277019;22;20259;-73
2024/03/30 09:35:38;;;;;;;0.30;0.30;;;10.70;99.90;;;;;;6276785;22;20204;-74
2024/03/30 09:38:04;;;;;;;0.35;0.35;;;10.80;99.90;;;;;;6277132;22;20172;-73
2024/03/30 09:40:30;;;;;;;0.25;0.25;;;10.80;99.90;;;;;;6276839;22;20168;-74
2024/03/30 09:42:57;;;;;;;0.20;0.20;;;10.60;99.90;;;;;;6277021;22;20168;-73
2024/03/30 09:45:27;;;;;;;0.40;0.40;;;10.40;99.90;;;;;;6276774;22;20240;-74
2024/03/30 09:47:57;;;;;;;0.30;0.30;;;10.40;99.90;;;;;;6276949;22;20169;-74
2024/03/30 09:50:23;;;;;;;0.50;0.50;;;10.30;99.90;;;;;;6276658;22;20183;-74
2024/03/30 09:52:51;;;;;;;0.30;0.30;;;10.10;99.90;;;;;;6276941;22;20229;-74
2024/03/30 09:55:17;;;;;;;0.20;0.20;;;10.00;99.90;;;;;;6276946;22;20172;-73
2024/03/30 09:57:48;;;;;;;0.20;0.20;;;10.00;99.90;;;;;;6275095;22;20237;-73
2024/03/30 10:00:14;;;;;;;0.20;0.20;;;10.20;99.90;;;;;;6276965;22;20188;-73
2024/03/30 10:02:41;;;;;;;0.40;0.40;;;10.10;99.90;;;;;;6276574;22;20229;-74
2024/03/30 10:05:09;;;;;;;0.32;0.32;;;10.10;99.90;;;;;;6276776;22;20624;-73
2024/03/30 10:07:47;;;;;;;0.20;0.20;;;10.00;99.90;;;;;;6276567;22;20596;-73
2024/03/30 10:10:16;;;;;;;0.20;0.20;;;10.10;99.90;;;;;;6276770;22;20168;-74
2024/03/30 10:12:54;;;;;;;0.20;0.20;;;10.30;99.90;;;;;;6276595;22;20175;-73
2024/03/30 10:15:28;;;;;;;0.30;0.30;;;10.40;99.90;;;;;;6276324;22;20172;-74
2024/03/30 10:17:53;;;;;;;0.30;0.30;;;10.90;99.90;;;;;;6276706;22;20165;-74
2024/03/30 10:20:21;;;;;;;3.33;1.58;;;11.40;99.90;;;;;;6276475;22;20509;-73
2024/03/30 10:22:48;;;;;;;0.30;0.30;;;11.40;99.90;;;;;;6276776;22;20169;-74
2024/03/30 10:25:15;;;;;;;0.30;0.30;;;11.30;99.90;;;;;;6278866;22;20168;-77
2024/03/30 10:27:40;;;;;;;0.20;0.20;;;11.30;99.90;;;;;;6278660;22;20172;-79
2024/03/30 10:30:07;;;;;;;0.88;0.50;;;11.30;99.90;;;;;;6278448;22;20168;-78
2024/03/30 10:32:36;;;;;;;0.20;0.20;;;11.30;99.90;;;;;;6281204;22;20172;-77
2024/03/30 10:35:04;;;;;;;0.30;0.30;;;11.30;99.90;;;;;;6298597;22;20195;-76
2024/03/30 10:37:30;;;;;;;0.20;0.20;;;11.40;99.90;;;;;;6298676;22;20148;-77
2024/03/30 10:39:56;;;;;;;0.30;0.30;;;11.40;99.90;;;;;;6297278;22;20157;-78
2024/03/30 10:42:22;;;;;;;0.30;0.30;;;11.30;99.90;;;;;;6276622;22;20171;-78
2024/03/30 10:44:52;;;;;;;0.20;0.20;;;11.20;99.90;;;;;;6276962;22;20169;-79
2024/03/30 10:47:18;;;;;;;0.20;0.20;;;11.00;99.90;;;;;;6276696;22;20251;-79
2024/03/30 10:49:44;;;;;;;0.40;0.40;;;10.80;99.90;;;;;;6276667;22;20192;-80
2024/03/30 10:52:15;;;;;;;0.30;0.30;;;10.80;99.90;;;;;;6276720;22;20594;-80
2024/03/30 10:54:43;;;;;;;0.20;0.20;;;10.70;99.90;;;;;;6274708;22;20629;-77
2024/03/30 10:57:09;;;;;;;0.20;0.20;;;10.70;99.90;;;;;;6276398;22;20172;-77
2024/03/30 10:59:40;;;;;;;0.20;0.20;;;10.50;99.90;;;;;;6276184;22;20695;-78
2024/03/30 11:02:17;;;;;;;0.20;0.20;;;10.60;99.90;;;;;;6274786;22;20176;-78
2024/03/30 11:04:44;;;;;;;0.20;0.20;;;10.80;99.90;;;;;;6276309;22;20187;-79
2024/03/30 11:07:13;;;;;;;0.52;0.52;;;10.70;99.90;;;;;;6276428;22;20174;-79
2024/03/30 11:09:44;;;;;;;0.50;0.50;;;10.80;99.90;;;;;;6275746;22;20182;-78
2024/03/30 11:12:11;;;;;;;0.40;0.40;;;10.70;99.90;;;;;;6276427;22;20190;-79
2024/03/30 11:14:37;;;;;;;0.20;0.20;;;10.60;99.90;;;;;;6275920;22;20590;-79
2024/03/30 11:17:20;;;;;;;0.20;0.20;;;10.70;99.90;;;;;;6276622;22;20172;-80
2024/03/30 11:20:11;;;;;;;0.20;0.20;;;10.70;99.90;;;;;;6276674;22;20547;-78
2024/03/30 11:22:57;;;;;;;0.20;0.20;;;10.80;99.90;;;;;;6276141;22;20246;-79
2024/03/30 11:25:27;;;;;;;0.20;0.20;;;11.00;99.90;;;;;;6274859;22;20636;-80
2024/03/30 11:28:11;;;;;;;0.43;0.43;;;11.10;99.90;;;;;;6276723;22;20560;-79
2024/03/30 11:30:39;;;;;;;0.50;0.50;;;11.10;99.90;;;;;;6275996;22;20645;-79
2024/03/30 11:33:15;;;;;;;0.20;0.20;;;10.80;99.90;;;;;;6274505;22;20183;-78
2024/03/30 11:35:55;;;;;;;0.20;0.20;;;10.80;99.90;;;;;;6276209;22;20518;-78
2024/03/30 11:38:24;;;;;;;0.20;0.20;;;10.80;99.90;;;;;;6276062;22;20188;-78
2024/03/30 11:41:00;;;;;;;0.43;0.43;;;10.50;99.90;;;;;;6276132;22;20617;-77
2024/03/30 11:43:28;;;;;;;0.40;0.40;;;10.50;99.90;;;;;;6275947;22;20251;-78
2024/03/30 11:45:55;;;;;;;0.40;0.40;;;10.50;99.90;;;;;;6275926;22;20606;-78
2024/03/30 11:48:21;;;;;;;0.20;0.20;;;10.30;99.90;;;;;;6275874;22;20614;-77
2024/03/30 11:50:47;;;;;;;0.20;0.20;;;10.10;99.90;;;;;;6276133;22;20172;-78
2024/03/30 11:53:18;;;;;;;0.25;0.25;;;10.00;99.90;;;;;;6274374;22;20199;-77
2024/03/30 11:55:48;;;;;;;0.20;0.20;;;10.00;99.90;;;;;;6275853;22;20626;-78
2024/03/30 11:58:19;;;;;;;7.47;1.40;;;9.80;99.90;;;;;;6276000;22;20187;-78
2024/03/30 12:00:48;;;;;;;0.30;0.30;;;9.50;99.90;;;;;;6275854;22;20164;-78
2024/03/30 12:03:15;;;;;;;0.20;0.20;;;9.40;99.90;;;;;;6275862;22;20255;-78
2024/03/30 12:05:43;;;;;;;0.82;0.52;;;9.30;99.90;;;;;;6275533;22;20200;-77
2024/03/30 12:08:10;;;;;;;1.85;0.73;;;9.10;99.90;;;;;;6275876;22;20172;-77
2024/03/30 12:11:04;;;;;;;0.30;0.30;;;9.00;99.90;;;;;;6275777;22;20290;-77
2024/03/30 12:13:39;;;;;;;0.50;0.50;;;9.10;99.90;;;;;;6275720;22;20192;-77
2024/03/30 12:16:05;;;;;;;0.50;0.50;;;9.10;99.90;;;;;;6275801;22;20670;-76
2024/03/30 12:18:31;;;;;;;0.30;0.30;;;9.20;99.90;;;;;;6275568;22;20168;-76
2024/03/30 12:20:57;;;;;;;0.35;0.35;;;9.30;99.90;;;;;;6276010;22;20175;-76
2024/03/30 12:23:24;;;;;;;0.25;0.25;;;9.20;99.90;;;;;;6275701;22;20541;-78
2024/03/30 12:25:51;;;;;;;0.20;0.20;;;9.20;99.90;;;;;;6275852;22;20563;-77
2024/03/30 12:28:18;;;;;;;1.98;1.40;;;9.30;99.90;;;;;;6274362;22;20172;-78
2024/03/30 12:30:49;;;;;;;0.20;0.20;;;9.20;99.90;;;;;;6275708;22;20193;-78
2024/03/30 12:33:15;;;;;;;0.30;0.30;;;9.10;99.90;;;;;;6274186;22;20191;-77
2024/03/30 12:35:44;;;;;;;0.20;0.20;;;9.10;99.90;;;;;;6274017;22;20196;-77
2024/03/30 12:38:19;;;;;;;0.22;0.22;;;8.90;99.90;;;;;;6274183;22;20200;-77
2024/03/30 12:40:46;;;;;;;3.53;1.80;;;8.80;99.90;;;;;;6275705;22;20505;-77
2024/03/30 12:43:14;;;;;;;0.30;0.30;;;8.70;99.90;;;;;;6275714;22;20265;-77
2024/03/30 12:45:44;;;;;;;0.30;0.30;;;8.80;99.90;;;;;;6275533;22;20662;-76
2024/03/30 12:48:10;;;;;;;0.88;0.63;;;8.70;99.90;;;;;;6273953;22;20187;-76
2024/03/30 12:50:37;;;;;;;0.28;0.28;;;8.60;99.90;;;;;;6275532;22;20196;-76
2024/03/30 12:53:03;;;;;;;0.22;0.22;;;8.60;99.90;;;;;;6276309;22;20168;-75
2024/03/30 12:55:29;;;;;;;0.22;0.22;;;8.70;99.90;;;;;;6277295;22;20233;-75
2024/03/30 12:57:56;;;;;;;0.30;0.30;;;8.80;99.90;;;;;;6277644;22;20660;-74
2024/03/30 13:00:23;;;;;;;0.20;0.20;;;8.90;99.90;;;;;;6277354;22;20251;-73